sensor_id;sensor_type;location;lat;lon;timestamp;temperature;humidity
463;DHT22;218;51.902;9.542;2023-04-06T00:00:14;4.30;1.00
463;DHT22;218;51.902;9.542;2023-04-06T00:02:41;4.20;1.00
463;DHT22;218;51.902;9.542;2023-04-06T00:05:08;4.20;1.00
463;DHT22;218;51.902;9.542;2023-04-06T00:07:35;4.20;1.00
463;DHT22;218;51.902;9.542;2023-04-06T00:10:03;4.10;1.00
463;DHT22;218;51.902;9.542;2023-04-06T00:12:32;4.10;1.00
463;DHT22;218;51.902;9.542;2023-04-06T00:14:59;4.10;1.00
463;DHT22;218;51.902;9.542;2023-04-06T00:17:27;4.10;1.00
463;DHT22;218;51.902;9.542;2023-04-06T00:19:54;4.10;1.00
463;DHT22;218;51.902;9.542;2023-04-06T00:22:21;4.10;1.00
463;DHT22;218;51.902;9.542;2023-04-06T00:24:48;4.00;1.00
463;DHT22;218;51.902;9.542;2023-04-06T00:27:15;4.00;1.00
463;DHT22;218;51.902;9.542;2023-04-06T00:29:43;4.00;1.00
463;DHT22;218;51.902;9.542;2023-04-06T00:32:10;4.00;1.00
463;DHT22;218;51.902;9.542;2023-04-06T00:34:37;4.00;1.00
463;DHT22;218;51.902;9.542;2023-04-06T00:37:04;4.00;1.00
463;DHT22;218;51.902;9.542;2023-04-06T00:39:31;4.00;1.00
463;DHT22;218;51.902;9.542;2023-04-06T00:41:58;4.00;1.00
463;DHT22;218;51.902;9.542;2023-04-06T00:44:25;3.90;1.00
463;DHT22;218;51.902;9.542;2023-04-06T00:46:54;3.90;1.00
463;DHT22;218;51.902;9.542;2023-04-06T00:49:21;3.90;1.00
463;DHT22;218;51.902;9.542;2023-04-06T00:51:48;3.90;1.00
463;DHT22;218;51.902;9.542;2023-04-06T00:54:15;3.90;1.00
463;DHT22;218;51.902;9.542;2023-04-06T00:56:42;3.80;1.00
463;DHT22;218;51.902;9.542;2023-04-06T00:59:10;3.80;1.00
463;DHT22;218;51.902;9.542;2023-04-06T01:01:37;3.80;1.00
463;DHT22;218;51.902;9.542;2023-04-06T01:04:06;3.80;1.00
463;DHT22;218;51.902;9.542;2023-04-06T01:06:33;3.80;1.00
463;DHT22;218;51.902;9.542;2023-04-06T01:09:00;3.70;1.00
463;DHT22;218;51.902;9.542;2023-04-06T01:11:27;3.70;1.00
463;DHT22;218;51.902;9.542;2023-04-06T01:13:54;3.70;1.00
463;DHT22;218;51.902;9.542;2023-04-06T01:16:21;3.70;1.00
463;DHT22;218;51.902;9.542;2023-04-06T01:18:48;3.70;1.00
463;DHT22;218;51.902;9.542;2023-04-06T01:21:17;3.70;1.00
463;DHT22;218;51.902;9.542;2023-04-06T01:23:45;3.70;1.00
463;DHT22;218;51.902;9.542;2023-04-06T01:26:12;3.80;1.00
463;DHT22;218;51.902;9.542;2023-04-06T01:28:40;3.80;1.00
463;DHT22;218;51.902;9.542;2023-04-06T01:31:08;3.70;1.00
463;DHT22;218;51.902;9.542;2023-04-06T01:33:35;3.70;1.00
463;DHT22;218;51.902;9.542;2023-04-06T01:36:02;3.70;1.00
463;DHT22;218;51.902;9.542;2023-04-06T01:38:30;3.70;1.00
463;DHT22;218;51.902;9.542;2023-04-06T01:40:58;3.70;1.00
463;DHT22;218;51.902;9.542;2023-04-06T01:43:25;3.70;1.00
463;DHT22;218;51.902;9.542;2023-04-06T01:45:52;3.70;1.00
463;DHT22;218;51.902;9.542;2023-04-06T01:48:19;3.70;1.00
463;DHT22;218;51.902;9.542;2023-04-06T01:50:46;3.70;1.00
463;DHT22;218;51.902;9.542;2023-04-06T01:53:13;3.70;1.00
463;DHT22;218;51.902;9.542;2023-04-06T01:55:41;3.70;1.00
463;DHT22;218;51.902;9.542;2023-04-06T01:58:09;3.70;1.00
463;DHT22;218;51.902;9.542;2023-04-06T02:00:36;3.70;1.00
463;DHT22;218;51.902;9.542;2023-04-06T02:03:03;3.70;1.00
463;DHT22;218;51.902;9.542;2023-04-06T02:05:31;3.70;1.00
463;DHT22;218;51.902;9.542;2023-04-06T02:08:03;2.20;1.00
463;DHT22;218;51.902;9.542;2023-04-06T02:10:30;3.60;1.00
463;DHT22;218;51.902;9.542;2023-04-06T02:12:57;3.60;1.00
463;DHT22;218;51.902;9.542;2023-04-06T02:15:26;3.60;1.00
463;DHT22;218;51.902;9.542;2023-04-06T02:17:53;3.60;1.00
463;DHT22;218;51.902;9.542;2023-04-06T02:20:20;3.60;1.00
463;DHT22;218;51.902;9.542;2023-04-06T02:22:47;3.50;1.00
463;DHT22;218;51.902;9.542;2023-04-06T02:25:14;3.50;1.00
463;DHT22;218;51.902;9.542;2023-04-06T02:27:41;3.50;1.00
463;DHT22;218;51.902;9.542;2023-04-06T02:30:08;3.50;1.00
463;DHT22;218;51.902;9.542;2023-04-06T02:32:37;3.50;1.00
463;DHT22;218;51.902;9.542;2023-04-06T02:35:04;3.40;1.00
463;DHT22;218;51.902;9.542;2023-04-06T02:37:32;3.40;1.00
463;DHT22;218;51.902;9.542;2023-04-06T02:39:58;3.40;1.00
463;DHT22;218;51.902;9.542;2023-04-06T02:42:25;3.40;1.00
463;DHT22;218;51.902;9.542;2023-04-06T02:44:52;3.40;1.00
463;DHT22;218;51.902;9.542;2023-04-06T02:47:19;3.40;1.00
463;DHT22;218;51.902;9.542;2023-04-06T02:49:48;3.40;1.00
463;DHT22;218;51.902;9.542;2023-04-06T02:52:15;3.40;1.00
463;DHT22;218;51.902;9.542;2023-04-06T02:54:43;3.40;1.00
463;DHT22;218;51.902;9.542;2023-04-06T02:57:10;3.40;1.00
463;DHT22;218;51.902;9.542;2023-04-06T02:59:37;3.40;1.00
463;DHT22;218;51.902;9.542;2023-04-06T03:02:04;3.40;1.00
463;DHT22;218;51.902;9.542;2023-04-06T03:04:31;3.50;1.00
463;DHT22;218;51.902;9.542;2023-04-06T03:06:59;3.50;1.00
463;DHT22;218;51.902;9.542;2023-04-06T03:09:26;3.50;1.00
463;DHT22;218;51.902;9.542;2023-04-06T03:11:53;3.40;1.00
463;DHT22;218;51.902;9.542;2023-04-06T03:14:21;3.40;1.00
463;DHT22;218;51.902;9.542;2023-04-06T03:16:48;3.40;1.00
463;DHT22;218;51.902;9.542;2023-04-06T03:19:15;3.40;1.00
463;DHT22;218;51.902;9.542;2023-04-06T03:21:42;3.40;1.00
463;DHT22;218;51.902;9.542;2023-04-06T03:24:11;3.40;1.00
463;DHT22;218;51.902;9.542;2023-04-06T03:26:39;3.30;1.00
463;DHT22;218;51.902;9.542;2023-04-06T03:29:06;3.30;1.00
463;DHT22;218;51.902;9.542;2023-04-06T03:31:33;3.30;1.00
463;DHT22;218;51.902;9.542;2023-04-06T03:34:00;3.30;1.00
463;DHT22;218;51.902;9.542;2023-04-06T03:36:27;3.30;1.00
463;DHT22;218;51.902;9.542;2023-04-06T03:38:54;3.20;1.00
463;DHT22;218;51.902;9.542;2023-04-06T03:41:22;3.20;1.00
463;DHT22;218;51.902;9.542;2023-04-06T03:43:49;3.20;1.00
463;DHT22;218;51.902;9.542;2023-04-06T03:46:16;3.20;1.00
463;DHT22;218;51.902;9.542;2023-04-06T03:48:43;3.20;1.00
463;DHT22;218;51.902;9.542;2023-04-06T03:51:10;3.20;1.00
463;DHT22;218;51.902;9.542;2023-04-06T03:53:37;3.10;1.00
463;DHT22;218;51.902;9.542;2023-04-06T03:56:05;3.10;1.00
463;DHT22;218;51.902;9.542;2023-04-06T03:58:33;3.10;1.00
463;DHT22;218;51.902;9.542;2023-04-06T04:01:00;3.10;1.00
463;DHT22;218;51.902;9.542;2023-04-06T04:03:27;3.10;1.00
463;DHT22;218;51.902;9.542;2023-04-06T04:05:54;3.10;1.00
463;DHT22;218;51.902;9.542;2023-04-06T04:08:21;3.10;1.00
463;DHT22;218;51.902;9.542;2023-04-06T04:10:48;3.10;1.00
463;DHT22;218;51.902;9.542;2023-04-06T04:13:15;3.10;1.00
463;DHT22;218;51.902;9.542;2023-04-06T04:15:44;3.10;1.00
463;DHT22;218;51.902;9.542;2023-04-06T04:18:13;3.00;1.00
463;DHT22;218;51.902;9.542;2023-04-06T04:20:40;3.10;1.00
463;DHT22;218;51.902;9.542;2023-04-06T04:23:07;3.10;1.00
463;DHT22;218;51.902;9.542;2023-04-06T04:25:33;3.10;1.00
463;DHT22;218;51.902;9.542;2023-04-06T04:28:00;3.10;1.00
463;DHT22;218;51.902;9.542;2023-04-06T04:30:28;3.10;1.00
463;DHT22;218;51.902;9.542;2023-04-06T04:32:56;3.10;1.00
463;DHT22;218;51.902;9.542;2023-04-06T04:35:23;3.10;1.00
463;DHT22;218;51.902;9.542;2023-04-06T04:37:50;3.10;1.00
463;DHT22;218;51.902;9.542;2023-04-06T04:40:17;3.00;1.00
463;DHT22;218;51.902;9.542;2023-04-06T04:42:44;3.00;1.00
463;DHT22;218;51.902;9.542;2023-04-06T04:45:12;3.00;1.00
463;DHT22;218;51.902;9.542;2023-04-06T04:47:39;3.00;1.00
463;DHT22;218;51.902;9.542;2023-04-06T04:50:08;3.00;1.00
463;DHT22;218;51.902;9.542;2023-04-06T04:52:35;3.00;1.00
463;DHT22;218;51.902;9.542;2023-04-06T04:55:02;3.00;1.00
463;DHT22;218;51.902;9.542;2023-04-06T04:57:29;3.00;1.00
463;DHT22;218;51.902;9.542;2023-04-06T04:59:56;3.00;1.00
463;DHT22;218;51.902;9.542;2023-04-06T05:02:23;3.00;1.00
463;DHT22;218;51.902;9.542;2023-04-06T05:04:50;3.00;1.00
463;DHT22;218;51.902;9.542;2023-04-06T05:07:19;2.90;1.00
463;DHT22;218;51.902;9.542;2023-04-06T05:09:46;2.90;1.00
463;DHT22;218;51.902;9.542;2023-04-06T05:12:13;2.90;1.00
463;DHT22;218;51.902;9.542;2023-04-06T05:14:40;2.90;1.00
463;DHT22;218;51.902;9.542;2023-04-06T05:17:08;2.90;1.00
463;DHT22;218;51.902;9.542;2023-04-06T05:19:35;3.00;1.00
463;DHT22;218;51.902;9.542;2023-04-06T05:22:02;3.00;1.00
463;DHT22;218;51.902;9.542;2023-04-06T05:24:30;3.00;1.00
463;DHT22;218;51.902;9.542;2023-04-06T05:26:57;3.00;1.00
463;DHT22;218;51.902;9.542;2023-04-06T05:29:25;3.00;1.00
463;DHT22;218;51.902;9.542;2023-04-06T05:31:52;3.00;1.00
463;DHT22;218;51.902;9.542;2023-04-06T05:34:20;3.00;1.00
463;DHT22;218;51.902;9.542;2023-04-06T05:36:47;3.00;1.00
463;DHT22;218;51.902;9.542;2023-04-06T05:39:14;3.10;1.00
463;DHT22;218;51.902;9.542;2023-04-06T05:41:42;3.10;1.00
463;DHT22;218;51.902;9.542;2023-04-06T05:44:09;3.10;1.00
463;DHT22;218;51.902;9.542;2023-04-06T05:46:36;3.10;1.00
463;DHT22;218;51.902;9.542;2023-04-06T05:49:03;3.10;1.00
463;DHT22;218;51.902;9.542;2023-04-06T05:51:30;3.10;1.00
463;DHT22;218;51.902;9.542;2023-04-06T05:53:57;3.10;1.00
463;DHT22;218;51.902;9.542;2023-04-06T05:56:24;3.10;1.00
463;DHT22;218;51.902;9.542;2023-04-06T05:58:53;3.10;1.00
463;DHT22;218;51.902;9.542;2023-04-06T06:01:20;3.20;1.00
463;DHT22;218;51.902;9.542;2023-04-06T06:03:47;3.20;1.00
463;DHT22;218;51.902;9.542;2023-04-06T06:06:14;3.20;1.00
463;DHT22;218;51.902;9.542;2023-04-06T06:08:41;3.30;1.00
463;DHT22;218;51.902;9.542;2023-04-06T06:11:08;3.30;1.00
463;DHT22;218;51.902;9.542;2023-04-06T06:13:35;3.30;1.00
463;DHT22;218;51.902;9.542;2023-04-06T06:16:04;3.30;1.00
463;DHT22;218;51.902;9.542;2023-04-06T06:18:31;3.40;1.00
463;DHT22;218;51.902;9.542;2023-04-06T06:20:58;3.40;1.00
463;DHT22;218;51.902;9.542;2023-04-06T06:23:25;3.40;1.00
463;DHT22;218;51.902;9.542;2023-04-06T06:25:52;3.50;1.00
463;DHT22;218;51.902;9.542;2023-04-06T06:28:22;3.50;1.00
463;DHT22;218;51.902;9.542;2023-04-06T06:30:50;3.60;1.00
463;DHT22;218;51.902;9.542;2023-04-06T06:33:19;3.70;1.00
463;DHT22;218;51.902;9.542;2023-04-06T06:35:46;3.70;1.00
463;DHT22;218;51.902;9.542;2023-04-06T06:38:13;3.80;1.00
463;DHT22;218;51.902;9.542;2023-04-06T06:40:40;3.80;1.00
463;DHT22;218;51.902;9.542;2023-04-06T06:43:07;3.90;1.00
463;DHT22;218;51.902;9.542;2023-04-06T06:45:34;4.00;1.00
463;DHT22;218;51.902;9.542;2023-04-06T06:48:01;4.10;1.00
463;DHT22;218;51.902;9.542;2023-04-06T06:50:30;4.10;1.00
463;DHT22;218;51.902;9.542;2023-04-06T06:52:57;4.30;1.00
463;DHT22;218;51.902;9.542;2023-04-06T06:55:24;4.30;1.00
463;DHT22;218;51.902;9.542;2023-04-06T06:57:52;4.40;1.00
463;DHT22;218;51.902;9.542;2023-04-06T07:00:19;4.50;1.00
463;DHT22;218;51.902;9.542;2023-04-06T07:02:47;4.50;1.00
463;DHT22;218;51.902;9.542;2023-04-06T07:05:15;4.60;1.00
463;DHT22;218;51.902;9.542;2023-04-06T07:07:43;4.70;1.00
463;DHT22;218;51.902;9.542;2023-04-06T07:10:11;4.80;1.00
463;DHT22;218;51.902;9.542;2023-04-06T07:12:38;4.80;1.00
463;DHT22;218;51.902;9.542;2023-04-06T07:15:06;4.90;1.00
463;DHT22;218;51.902;9.542;2023-04-06T07:17:33;5.00;1.00
463;DHT22;218;51.902;9.542;2023-04-06T07:20:00;5.10;1.00
463;DHT22;218;51.902;9.542;2023-04-06T07:22:27;5.20;1.00
463;DHT22;218;51.902;9.542;2023-04-06T07:24:55;5.20;1.00
463;DHT22;218;51.902;9.542;2023-04-06T07:27:22;5.30;1.00
463;DHT22;218;51.902;9.542;2023-04-06T07:29:49;5.40;1.00
463;DHT22;218;51.902;9.542;2023-04-06T07:32:16;5.50;1.00
463;DHT22;218;51.902;9.542;2023-04-06T07:34:43;5.50;1.00
463;DHT22;218;51.902;9.542;2023-04-06T07:37:12;5.60;1.00
463;DHT22;218;51.902;9.542;2023-04-06T07:39:39;5.70;1.00
463;DHT22;218;51.902;9.542;2023-04-06T07:42:07;5.80;1.00
463;DHT22;218;51.902;9.542;2023-04-06T07:44:34;5.90;1.00
463;DHT22;218;51.902;9.542;2023-04-06T07:47:01;6.00;1.00
463;DHT22;218;51.902;9.542;2023-04-06T07:49:28;6.10;1.00
463;DHT22;218;51.902;9.542;2023-04-06T07:51:56;6.10;1.00
463;DHT22;218;51.902;9.542;2023-04-06T07:54:23;6.30;1.00
463;DHT22;218;51.902;9.542;2023-04-06T07:56:50;6.40;1.00
463;DHT22;218;51.902;9.542;2023-04-06T07:59:18;6.50;1.00
463;DHT22;218;51.902;9.542;2023-04-06T08:01:45;6.60;1.00
463;DHT22;218;51.902;9.542;2023-04-06T08:04:12;6.70;1.00
463;DHT22;218;51.902;9.542;2023-04-06T08:06:39;6.80;1.00
463;DHT22;218;51.902;9.542;2023-04-06T08:09:06;6.90;1.00
463;DHT22;218;51.902;9.542;2023-04-06T08:11:33;7.00;1.00
463;DHT22;218;51.902;9.542;2023-04-06T08:14:00;7.20;1.00
463;DHT22;218;51.902;9.542;2023-04-06T08:16:29;7.30;1.00
463;DHT22;218;51.902;9.542;2023-04-06T08:18:56;7.50;1.00
463;DHT22;218;51.902;9.542;2023-04-06T08:21:23;7.60;1.00
463;DHT22;218;51.902;9.542;2023-04-06T08:23:49;7.80;1.00
463;DHT22;218;51.902;9.542;2023-04-06T08:26:16;8.00;1.00
463;DHT22;218;51.902;9.542;2023-04-06T08:28:43;8.30;1.00
463;DHT22;218;51.902;9.542;2023-04-06T08:33:39;8.70;1.00
463;DHT22;218;51.902;9.542;2023-04-06T08:36:08;8.80;1.00
463;DHT22;218;51.902;9.542;2023-04-06T08:41:07;9.10;1.00
463;DHT22;218;51.902;9.542;2023-04-06T08:58:26;10.40;1.00
463;DHT22;218;51.902;9.542;2023-04-06T09:03:22;10.90;1.00
463;DHT22;218;51.902;9.542;2023-04-06T09:15:42;11.30;1.00
463;DHT22;218;51.902;9.542;2023-04-06T09:25:32;12.00;1.00
463;DHT22;218;51.902;9.542;2023-04-06T09:28:00;12.20;1.00
463;DHT22;218;51.902;9.542;2023-04-06T09:30:29;12.10;1.00
463;DHT22;218;51.902;9.542;2023-04-06T09:32:56;12.50;1.00
463;DHT22;218;51.902;9.542;2023-04-06T09:35:25;12.40;1.00
463;DHT22;218;51.902;9.542;2023-04-06T09:40:20;12.80;1.00
463;DHT22;218;51.902;9.542;2023-04-06T09:42:50;13.00;1.00
463;DHT22;218;51.902;9.542;2023-04-06T09:47:47;13.40;1.00
463;DHT22;218;51.902;9.542;2023-04-06T09:55:22;13.70;1.00
463;DHT22;218;51.902;9.542;2023-04-06T09:57:57;13.90;1.00
463;DHT22;218;51.902;9.542;2023-04-06T10:00:25;13.90;1.00
463;DHT22;218;51.902;9.542;2023-04-06T10:08:01;14.30;1.00
463;DHT22;218;51.902;9.542;2023-04-06T10:15:26;14.60;1.00
463;DHT22;218;51.902;9.542;2023-04-06T10:17:54;14.80;1.00
463;DHT22;218;51.902;9.542;2023-04-06T10:20:25;14.80;1.00
463;DHT22;218;51.902;9.542;2023-04-06T10:22:58;15.00;1.00
463;DHT22;218;51.902;9.542;2023-04-06T10:25:27;15.10;1.00
463;DHT22;218;51.902;9.542;2023-04-06T10:28:01;15.20;1.00
463;DHT22;218;51.902;9.542;2023-04-06T10:30:28;15.30;1.00
463;DHT22;218;51.902;9.542;2023-04-06T10:32:55;15.30;1.00
463;DHT22;218;51.902;9.542;2023-04-06T10:35:22;15.50;1.00
463;DHT22;218;51.902;9.542;2023-04-06T10:37:52;15.60;1.00
463;DHT22;218;51.902;9.542;2023-04-06T10:40:22;15.70;1.00
463;DHT22;218;51.902;9.542;2023-04-06T10:50:17;16.00;1.00
463;DHT22;218;51.902;9.542;2023-04-06T10:52:44;16.10;1.00
463;DHT22;218;51.902;9.542;2023-04-06T10:55:13;16.20;1.00
463;DHT22;218;51.902;9.542;2023-04-06T11:02:37;16.40;1.00
463;DHT22;218;51.902;9.542;2023-04-06T11:07:32;16.60;1.00
463;DHT22;218;51.902;9.542;2023-04-06T11:09:59;16.60;1.00
463;DHT22;218;51.902;9.542;2023-04-06T11:14:56;16.70;1.00
463;DHT22;218;51.902;9.542;2023-04-06T11:19:57;16.80;1.00
463;DHT22;218;51.902;9.542;2023-04-06T11:22:24;17.00;1.00
463;DHT22;218;51.902;9.542;2023-04-06T11:27:19;17.00;1.00
463;DHT22;218;51.902;9.542;2023-04-06T11:29:47;17.20;1.00
463;DHT22;218;51.902;9.542;2023-04-06T11:32:21;17.20;1.00
463;DHT22;218;51.902;9.542;2023-04-06T11:34:49;17.30;1.00
463;DHT22;218;51.902;9.542;2023-04-06T11:37:17;17.40;1.00
463;DHT22;218;51.902;9.542;2023-04-06T11:39:48;17.40;1.00
463;DHT22;218;51.902;9.542;2023-04-06T11:42:21;17.60;1.00
463;DHT22;218;51.902;9.542;2023-04-06T11:44:51;17.70;1.00
463;DHT22;218;51.902;9.542;2023-04-06T11:47:19;17.70;1.00
463;DHT22;218;51.902;9.542;2023-04-06T11:49:48;17.60;1.00
463;DHT22;218;51.902;9.542;2023-04-06T11:54:46;17.90;1.00
463;DHT22;218;51.902;9.542;2023-04-06T11:57:15;17.90;1.00
463;DHT22;218;51.902;9.542;2023-04-06T11:59:43;17.90;1.00
463;DHT22;218;51.902;9.542;2023-04-06T12:04:38;18.00;1.00
463;DHT22;218;51.902;9.542;2023-04-06T12:07:05;18.10;1.00
463;DHT22;218;51.902;9.542;2023-04-06T12:09:33;18.20;1.00
463;DHT22;218;51.902;9.542;2023-04-06T12:12:02;18.30;1.00
463;DHT22;218;51.902;9.542;2023-04-06T12:14:29;18.30;1.00
463;DHT22;218;51.902;9.542;2023-04-06T12:16:56;18.30;1.00
463;DHT22;218;51.902;9.542;2023-04-06T12:19:24;18.40;1.00
463;DHT22;218;51.902;9.542;2023-04-06T12:21:51;18.50;1.00
463;DHT22;218;51.902;9.542;2023-04-06T12:24:20;18.50;1.00
463;DHT22;218;51.902;9.542;2023-04-06T12:26:48;18.60;1.00
463;DHT22;218;51.902;9.542;2023-04-06T12:29:15;18.70;1.00
463;DHT22;218;51.902;9.542;2023-04-06T12:31:42;18.80;1.00
463;DHT22;218;51.902;9.542;2023-04-06T12:34:10;18.80;1.00
463;DHT22;218;51.902;9.542;2023-04-06T12:36:38;18.90;1.00
463;DHT22;218;51.902;9.542;2023-04-06T12:39:05;18.90;1.00
463;DHT22;218;51.902;9.542;2023-04-06T12:41:32;19.00;1.00
463;DHT22;218;51.902;9.542;2023-04-06T12:44:01;19.10;1.00
463;DHT22;218;51.902;9.542;2023-04-06T12:46:28;19.10;1.00
463;DHT22;218;51.902;9.542;2023-04-06T12:48:56;19.20;1.00
463;DHT22;218;51.902;9.542;2023-04-06T12:51:27;19.20;1.00
463;DHT22;218;51.902;9.542;2023-04-06T12:53:54;19.30;1.00
463;DHT22;218;51.902;9.542;2023-04-06T12:56:21;19.40;1.00
463;DHT22;218;51.902;9.542;2023-04-06T12:58:49;19.50;1.00
463;DHT22;218;51.902;9.542;2023-04-06T13:01:18;19.50;1.00
463;DHT22;218;51.902;9.542;2023-04-06T13:03:45;19.50;1.00
463;DHT22;218;51.902;9.542;2023-04-06T13:06:12;19.60;1.00
463;DHT22;218;51.902;9.542;2023-04-06T13:08:41;19.80;1.00
463;DHT22;218;51.902;9.542;2023-04-06T13:11:08;19.70;1.00
463;DHT22;218;51.902;9.542;2023-04-06T13:13:35;19.80;1.00
463;DHT22;218;51.902;9.542;2023-04-06T13:16:03;19.80;1.00
463;DHT22;218;51.902;9.542;2023-04-06T13:18:33;19.90;1.00
463;DHT22;218;51.902;9.542;2023-04-06T13:21:00;20.00;1.00
463;DHT22;218;51.902;9.542;2023-04-06T13:23:27;20.10;1.00
463;DHT22;218;51.902;9.542;2023-04-06T13:25:58;20.20;1.00
463;DHT22;218;51.902;9.542;2023-04-06T13:28:26;20.20;1.00
463;DHT22;218;51.902;9.542;2023-04-06T13:30:54;20.30;1.00
463;DHT22;218;51.902;9.542;2023-04-06T13:33:21;20.30;1.00
463;DHT22;218;51.902;9.542;2023-04-06T13:35:50;20.40;1.00
463;DHT22;218;51.902;9.542;2023-04-06T13:38:17;20.50;1.00
463;DHT22;218;51.902;9.542;2023-04-06T13:40:44;20.50;1.00
463;DHT22;218;51.902;9.542;2023-04-06T13:43:11;20.50;1.00
463;DHT22;218;51.902;9.542;2023-04-06T13:45:38;20.60;1.00
463;DHT22;218;51.902;9.542;2023-04-06T13:48:06;20.60;1.00
463;DHT22;218;51.902;9.542;2023-04-06T13:50:33;20.70;1.00
463;DHT22;218;51.902;9.542;2023-04-06T13:53:02;20.70;1.00
463;DHT22;218;51.902;9.542;2023-04-06T13:55:28;20.80;1.00
463;DHT22;218;51.902;9.542;2023-04-06T13:57:56;20.90;1.00
463;DHT22;218;51.902;9.542;2023-04-06T14:00:24;21.00;1.00
463;DHT22;218;51.902;9.542;2023-04-06T14:02:53;21.00;1.00
463;DHT22;218;51.902;9.542;2023-04-06T14:05:19;21.00;1.00
463;DHT22;218;51.902;9.542;2023-04-06T14:07:46;21.10;1.00
463;DHT22;218;51.902;9.542;2023-04-06T14:10:15;21.10;1.00
463;DHT22;218;51.902;9.542;2023-04-06T14:12:42;21.10;1.00
463;DHT22;218;51.902;9.542;2023-04-06T14:15:11;21.10;1.00
463;DHT22;218;51.902;9.542;2023-04-06T14:17:38;23.50;1.00
463;DHT22;218;51.902;9.542;2023-04-06T14:20:06;20.80;1.00
463;DHT22;218;51.902;9.542;2023-04-06T14:22:33;20.30;1.00
463;DHT22;218;51.902;9.542;2023-04-06T14:27:30;19.80;1.00
463;DHT22;218;51.902;9.542;2023-04-06T14:29:57;19.70;1.00
463;DHT22;218;51.902;9.542;2023-04-06T14:32:23;19.60;1.00
463;DHT22;218;51.902;9.542;2023-04-06T14:34:51;19.60;1.00
463;DHT22;218;51.902;9.542;2023-04-06T14:37:18;19.50;1.00
463;DHT22;218;51.902;9.542;2023-04-06T14:39:46;19.50;1.00
463;DHT22;218;51.902;9.542;2023-04-06T14:42:13;19.60;1.00
463;DHT22;218;51.902;9.542;2023-04-06T14:44:41;19.60;1.00
463;DHT22;218;51.902;9.542;2023-04-06T14:47:10;19.60;1.00
463;DHT22;218;51.902;9.542;2023-04-06T14:49:41;19.60;1.00
463;DHT22;218;51.902;9.542;2023-04-06T14:52:07;19.70;1.00
463;DHT22;218;51.902;9.542;2023-04-06T14:59:29;19.50;1.00
463;DHT22;218;51.902;9.542;2023-04-06T15:02:00;19.50;1.00
463;DHT22;218;51.902;9.542;2023-04-06T15:09:21;19.20;1.00
463;DHT22;218;51.902;9.542;2023-04-06T15:11:48;19.20;1.00
463;DHT22;218;51.902;9.542;2023-04-06T15:21:38;18.50;1.00
463;DHT22;218;51.902;9.542;2023-04-06T15:24:05;18.60;1.00
463;DHT22;218;51.902;9.542;2023-04-06T15:36:27;18.20;1.00
463;DHT22;218;51.902;9.542;2023-04-06T15:46:18;17.20;1.00
463;DHT22;218;51.902;9.542;2023-04-06T15:51:12;16.90;1.00
463;DHT22;218;51.902;9.542;2023-04-06T15:53:40;16.90;1.00
463;DHT22;218;51.902;9.542;2023-04-06T16:06:04;16.70;1.00
463;DHT22;218;51.902;9.542;2023-04-06T16:30:40;15.80;1.00
463;DHT22;218;51.902;9.542;2023-04-06T16:52:45;15.20;1.00
463;DHT22;218;51.902;9.542;2023-04-06T17:05:04;16.70;1.00
463;DHT22;218;51.902;9.542;2023-04-06T17:17:21;17.10;1.00
463;DHT22;218;51.902;9.542;2023-04-06T17:24:48;16.80;1.00
463;DHT22;218;51.902;9.542;2023-04-06T17:27:15;17.00;1.00
463;DHT22;218;51.902;9.542;2023-04-06T17:29:42;16.70;1.00
463;DHT22;218;51.902;9.542;2023-04-06T17:34:37;16.70;1.00
463;DHT22;218;51.902;9.542;2023-04-06T17:46:56;16.60;1.00
463;DHT22;218;51.902;9.542;2023-04-06T17:49:23;16.40;1.00
463;DHT22;218;51.902;9.542;2023-04-06T17:51:50;16.40;1.00
463;DHT22;218;51.902;9.542;2023-04-06T17:56:45;16.10;1.00
463;DHT22;218;51.902;9.542;2023-04-06T18:01:41;16.50;1.00
463;DHT22;218;51.902;9.542;2023-04-06T18:04:07;15.40;1.00
463;DHT22;218;51.902;9.542;2023-04-06T18:18:54;15.40;1.00
463;DHT22;218;51.902;9.542;2023-04-06T18:26:17;14.80;1.00
463;DHT22;218;51.902;9.542;2023-04-06T18:31:14;14.80;1.00
463;DHT22;218;51.902;9.542;2023-04-06T18:50:57;13.90;1.00
463;DHT22;218;51.902;9.542;2023-04-06T18:53:26;13.90;1.00
463;DHT22;218;51.902;9.542;2023-04-06T18:58:22;13.70;1.00
463;DHT22;218;51.902;9.542;2023-04-06T19:00:49;13.60;1.00
463;DHT22;218;51.902;9.542;2023-04-06T19:08:12;12.90;1.00
463;DHT22;218;51.902;9.542;2023-04-06T19:15:34;13.50;1.00
463;DHT22;218;51.902;9.542;2023-04-06T19:37:46;13.50;1.00
463;DHT22;218;51.902;9.542;2023-04-06T19:42:40;13.60;1.00
463;DHT22;218;51.902;9.542;2023-04-06T19:54:58;13.50;1.00
463;DHT22;218;51.902;9.542;2023-04-06T20:07:15;13.50;1.00
463;DHT22;218;51.902;9.542;2023-04-06T20:09:42;13.50;1.00
463;DHT22;218;51.902;9.542;2023-04-06T20:24:28;14.20;1.00
463;DHT22;218;51.902;9.542;2023-04-06T20:34:18;13.80;1.00
463;DHT22;218;51.902;9.542;2023-04-06T20:53:57;12.30;1.00
463;DHT22;218;51.902;9.542;2023-04-06T21:06:18;11.50;1.00
463;DHT22;218;51.902;9.542;2023-04-06T21:23:32;11.70;1.00
463;DHT22;218;51.902;9.542;2023-04-06T22:02:50;10.40;1.00
463;DHT22;218;51.902;9.542;2023-04-06T22:20:03;10.60;1.00
463;DHT22;218;51.902;9.542;2023-04-06T22:27:25;10.80;1.00
463;DHT22;218;51.902;9.542;2023-04-06T22:56:54;10.20;1.00
463;DHT22;218;51.902;9.542;2023-04-06T23:01:48;9.80;1.00
